sensor_id;sensor_type;location;lat;lon;timestamp;pressure;altitude;pressure_sealevel;temperature;humidity
71938;BME280;59810;48.800;9.086;2023-04-25T00:01:55;97028.41;;;8.20;72.34
71938;BME280;59810;48.800;9.086;2023-04-25T00:04:21;97021.91;;;8.16;72.68
71938;BME280;59810;48.800;9.086;2023-04-25T00:06:47;97018.97;;;8.18;72.64
71938;BME280;59810;48.800;9.086;2023-04-25T00:09:12;97024.03;;;8.14;72.40
71938;BME280;59810;48.800;9.086;2023-04-25T00:11:38;97020.53;;;8.14;72.32
71938;BME280;59810;48.800;9.086;2023-04-25T00:14:04;97012.13;;;8.10;72.75
71938;BME280;59810;48.800;9.086;2023-04-25T00:16:32;97014.00;;;8.09;72.95
71938;BME280;59810;48.800;9.086;2023-04-25T00:19:00;97014.25;;;8.08;73.34
71938;BME280;59810;48.800;9.086;2023-04-25T00:21:29;97017.19;;;8.06;72.70
71938;BME280;59810;48.800;9.086;2023-04-25T00:23:58;97021.75;;;8.06;72.96
71938;BME280;59810;48.800;9.086;2023-04-25T00:26:24;97020.13;;;8.05;73.73
71938;BME280;59810;48.800;9.086;2023-04-25T00:28:51;97018.50;;;8.04;73.50
71938;BME280;59810;48.800;9.086;2023-04-25T00:31:17;97019.31;;;8.04;73.84
71938;BME280;59810;48.800;9.086;2023-04-25T00:33:42;97012.56;;;8.02;73.86
71938;BME280;59810;48.800;9.086;2023-04-25T00:36:08;97006.13;;;8.03;74.16
71938;BME280;59810;48.800;9.086;2023-04-25T00:38:33;97002.88;;;8.01;73.88
71938;BME280;59810;48.800;9.086;2023-04-25T00:40:59;97006.13;;;8.03;73.98
71938;BME280;59810;48.800;9.086;2023-04-25T00:43:27;97004.50;;;8.02;73.88
71938;BME280;59810;48.800;9.086;2023-04-25T00:45:54;96997.25;;;8.02;74.40
71938;BME280;59810;48.800;9.086;2023-04-25T00:48:22;97004.00;;;8.05;74.28
71938;BME280;59810;48.800;9.086;2023-04-25T00:50:52;96991.38;;;8.05;74.13
71938;BME280;59810;48.800;9.086;2023-04-25T00:53:20;96994.06;;;8.05;74.13
71938;BME280;59810;48.800;9.086;2023-04-25T00:55:47;96989.50;;;8.06;73.86
71938;BME280;59810;48.800;9.086;2023-04-25T00:58:16;96989.50;;;8.06;74.17
71938;BME280;59810;48.800;9.086;2023-04-25T01:00:41;96993.25;;;8.05;74.14
71938;BME280;59810;48.800;9.086;2023-04-25T01:03:07;96985.19;;;8.05;74.36
71938;BME280;59810;48.800;9.086;2023-04-25T01:05:32;96983.63;;;8.09;73.70
71938;BME280;59810;48.800;9.086;2023-04-25T01:07:58;96977.72;;;8.12;73.83
71938;BME280;59810;48.800;9.086;2023-04-25T01:10:24;96982.06;;;8.13;73.32
71938;BME280;59810;48.800;9.086;2023-04-25T01:12:49;96986.88;;;8.11;73.43
71938;BME280;59810;48.800;9.086;2023-04-25T01:15:15;96985.75;;;8.07;73.76
71938;BME280;59810;48.800;9.086;2023-04-25T01:17:41;96992.19;;;8.06;73.92
71938;BME280;59810;48.800;9.086;2023-04-25T01:20:11;96993.25;;;8.05;74.37
71938;BME280;59810;48.800;9.086;2023-04-25T01:22:39;96978.44;;;8.02;74.55
71938;BME280;59810;48.800;9.086;2023-04-25T01:25:05;96974.94;;;8.02;74.36
71938;BME280;59810;48.800;9.086;2023-04-25T01:27:30;96970.38;;;8.02;74.55
71938;BME280;59810;48.800;9.086;2023-04-25T01:29:56;96960.69;;;8.01;74.49
71938;BME280;59810;48.800;9.086;2023-04-25T01:32:22;96960.88;;;7.95;74.54
71938;BME280;59810;48.800;9.086;2023-04-25T01:34:48;96976.25;;;7.99;74.61
71938;BME280;59810;48.800;9.086;2023-04-25T01:37:14;96973.50;;;7.94;74.75
71938;BME280;59810;48.800;9.086;2023-04-25T01:39:44;96966.75;;;7.92;74.41
71938;BME280;59810;48.800;9.086;2023-04-25T01:42:10;96975.38;;;7.94;74.48
71938;BME280;59810;48.800;9.086;2023-04-25T01:44:35;96968.13;;;7.94;74.29
71938;BME280;59810;48.800;9.086;2023-04-25T01:47:03;96976.50;;;7.98;74.08
71938;BME280;59810;48.800;9.086;2023-04-25T01:49:29;96972.75;;;7.99;74.21
71938;BME280;59810;48.800;9.086;2023-04-25T01:51:56;96971.63;;;7.95;74.89
71938;BME280;59810;48.800;9.086;2023-04-25T01:54:22;96967.75;;;7.86;74.99
71938;BME280;59810;48.800;9.086;2023-04-25T01:56:50;96967.25;;;7.89;75.19
71938;BME280;59810;48.800;9.086;2023-04-25T01:59:18;96965.63;;;7.88;75.15
71938;BME280;59810;48.800;9.086;2023-04-25T02:01:47;96964.81;;;7.87;75.48
71938;BME280;59810;48.800;9.086;2023-04-25T02:04:12;96969.06;;;7.83;75.41
71938;BME280;59810;48.800;9.086;2023-04-25T02:06:37;96976.56;;;7.81;75.48
71938;BME280;59810;48.800;9.086;2023-04-25T02:09:03;96976.97;;;7.73;76.10
71938;BME280;59810;48.800;9.086;2023-04-25T02:11:28;96977.47;;;7.70;76.37
71938;BME280;59810;48.800;9.086;2023-04-25T02:13:53;96975.00;;;7.68;76.93
71938;BME280;59810;48.800;9.086;2023-04-25T02:16:19;96972.09;;;7.70;77.05
71938;BME280;59810;48.800;9.086;2023-04-25T02:18:44;96972.09;;;7.70;76.98
71938;BME280;59810;48.800;9.086;2023-04-25T02:21:12;96963.47;;;7.68;77.39
71938;BME280;59810;48.800;9.086;2023-04-25T02:23:37;96962.56;;;7.62;77.70
71938;BME280;59810;48.800;9.086;2023-04-25T02:26:03;96967.88;;;7.57;77.65
71938;BME280;59810;48.800;9.086;2023-04-25T02:28:28;96960.31;;;7.54;78.24
71938;BME280;59810;48.800;9.086;2023-04-25T02:30:54;96964.00;;;7.48;78.63
71938;BME280;59810;48.800;9.086;2023-04-25T02:33:19;96968.22;;;7.44;78.07
71938;BME280;59810;48.800;9.086;2023-04-25T02:35:47;96958.38;;;7.33;78.57
71938;BME280;59810;48.800;9.086;2023-04-25T02:38:12;96953.59;;;7.35;78.26
71938;BME280;59810;48.800;9.086;2023-04-25T02:40:41;96950.41;;;7.38;77.98
71938;BME280;59810;48.800;9.086;2023-04-25T02:43:06;96940.78;;;7.42;77.84
71938;BME280;59810;48.800;9.086;2023-04-25T02:45:32;96942.41;;;7.43;77.46
71938;BME280;59810;48.800;9.086;2023-04-25T02:47:57;96944.84;;;7.44;78.00
71938;BME280;59810;48.800;9.086;2023-04-25T02:50:25;96943.47;;;7.42;77.03
71938;BME280;59810;48.800;9.086;2023-04-25T02:52:50;96942.03;;;7.34;77.41
71938;BME280;59810;48.800;9.086;2023-04-25T02:55:15;96943.91;;;7.34;77.50
71938;BME280;59810;48.800;9.086;2023-04-25T02:57:43;96950.75;;;7.25;77.87
71938;BME280;59810;48.800;9.086;2023-04-25T03:00:09;96949.69;;;7.26;78.22
71938;BME280;59810;48.800;9.086;2023-04-25T03:02:36;96944.06;;;7.27;77.39
71938;BME280;59810;48.800;9.086;2023-04-25T03:05:04;96942.44;;;7.26;77.98
71938;BME280;59810;48.800;9.086;2023-04-25T03:07:29;96944.06;;;7.27;77.23
71938;BME280;59810;48.800;9.086;2023-04-25T03:09:55;96942.44;;;7.26;77.36
71938;BME280;59810;48.800;9.086;2023-04-25T03:12:21;96946.44;;;7.24;77.57
71938;BME280;59810;48.800;9.086;2023-04-25T03:14:47;96930.91;;;7.26;78.34
71938;BME280;59810;48.800;9.086;2023-04-25T03:17:14;96934.41;;;7.26;77.67
71938;BME280;59810;48.800;9.086;2023-04-25T03:19:42;96926.91;;;7.28;77.39
71938;BME280;59810;48.800;9.086;2023-04-25T03:22:07;96934.22;;;7.33;77.32
71938;BME280;59810;48.800;9.086;2023-04-25T03:24:33;96936.91;;;7.33;77.11
71938;BME280;59810;48.800;9.086;2023-04-25T03:26:58;96932.59;;;7.32;77.59
71938;BME280;59810;48.800;9.086;2023-04-25T03:29:23;96930.66;;;7.27;77.38
71938;BME280;59810;48.800;9.086;2023-04-25T03:31:49;96932.78;;;7.25;77.97
71938;BME280;59810;48.800;9.086;2023-04-25T03:34:15;96933.59;;;7.26;77.79
71938;BME280;59810;48.800;9.086;2023-04-25T03:36:40;96937.00;;;7.21;77.88
71938;BME280;59810;48.800;9.086;2023-04-25T03:39:05;96938.06;;;7.20;78.13
71938;BME280;59810;48.800;9.086;2023-04-25T03:41:31;96934.81;;;7.18;78.23
71938;BME280;59810;48.800;9.086;2023-04-25T03:43:56;96930.75;;;7.15;78.28
71938;BME280;59810;48.800;9.086;2023-04-25T03:46:24;96937.25;;;7.20;79.34
71938;BME280;59810;48.800;9.086;2023-04-25T03:48:49;96931.97;;;7.25;79.29
71938;BME280;59810;48.800;9.086;2023-04-25T03:51:15;96926.09;;;7.28;78.25
71938;BME280;59810;48.800;9.086;2023-04-25T03:53:40;96922.34;;;7.29;78.16
71938;BME280;59810;48.800;9.086;2023-04-25T03:56:11;96928.53;;;7.29;77.56
71938;BME280;59810;48.800;9.086;2023-04-25T03:58:37;96926.66;;;7.30;77.97
71938;BME280;59810;48.800;9.086;2023-04-25T04:01:02;96925.84;;;7.29;78.26
71938;BME280;59810;48.800;9.086;2023-04-25T04:03:32;96923.91;;;7.25;78.22
71938;BME280;59810;48.800;9.086;2023-04-25T04:05:57;96933.03;;;7.24;78.58
71938;BME280;59810;48.800;9.086;2023-04-25T04:08:24;96927.16;;;7.27;78.49
71938;BME280;59810;48.800;9.086;2023-04-25T04:10:49;96927.47;;;7.30;78.27
71938;BME280;59810;48.800;9.086;2023-04-25T04:13:15;96927.16;;;7.27;78.56
71938;BME280;59810;48.800;9.086;2023-04-25T04:15:40;96935.78;;;7.29;78.46
71938;BME280;59810;48.800;9.086;2023-04-25T04:18:06;96928.22;;;7.26;78.07
71938;BME280;59810;48.800;9.086;2023-04-25T04:20:31;96935.44;;;7.25;78.79
71938;BME280;59810;48.800;9.086;2023-04-25T04:22:56;96940.50;;;7.22;78.53
71938;BME280;59810;48.800;9.086;2023-04-25T04:25:22;96942.63;;;7.20;79.04
71938;BME280;59810;48.800;9.086;2023-04-25T04:27:47;96938.38;;;7.24;78.89
71938;BME280;59810;48.800;9.086;2023-04-25T04:30:13;96940.81;;;7.25;79.47
71938;BME280;59810;48.800;9.086;2023-04-25T04:32:38;96935.22;;;7.27;79.55
71938;BME280;59810;48.800;9.086;2023-04-25T04:35:04;96945.78;;;7.33;79.46
71938;BME280;59810;48.800;9.086;2023-04-25T04:37:31;96947.56;;;7.28;79.45
71938;BME280;59810;48.800;9.086;2023-04-25T04:39:57;96957.31;;;7.34;80.12
71938;BME280;59810;48.800;9.086;2023-04-25T04:42:23;96944.63;;;7.29;79.50
71938;BME280;59810;48.800;9.086;2023-04-25T04:44:49;96954.63;;;7.34;79.36
71938;BME280;59810;48.800;9.086;2023-04-25T04:47:15;96963.25;;;7.36;79.68
71938;BME280;59810;48.800;9.086;2023-04-25T04:49:40;96960.81;;;7.34;79.74
71938;BME280;59810;48.800;9.086;2023-04-25T04:52:06;96960.56;;;7.36;80.11
71938;BME280;59810;48.800;9.086;2023-04-25T04:54:31;96968.13;;;7.39;79.62
71938;BME280;59810;48.800;9.086;2023-04-25T04:57:00;96972.75;;;7.43;79.33
71938;BME280;59810;48.800;9.086;2023-04-25T04:59:25;96971.22;;;7.47;79.15
71938;BME280;59810;48.800;9.086;2023-04-25T05:01:53;96974.25;;;7.51;78.83
71938;BME280;59810;48.800;9.086;2023-04-25T05:04:18;96972.13;;;7.53;79.28
71938;BME280;59810;48.800;9.086;2023-04-25T05:06:43;96975.38;;;7.55;78.98
71938;BME280;59810;48.800;9.086;2023-04-25T05:09:09;96971.88;;;7.55;78.60
71938;BME280;59810;48.800;9.086;2023-04-25T05:11:37;96969.75;;;7.57;78.51
71938;BME280;59810;48.800;9.086;2023-04-25T05:14:03;96974.63;;;7.60;77.93
71938;BME280;59810;48.800;9.086;2023-04-25T05:16:28;96973.00;;;7.59;78.27
71938;BME280;59810;48.800;9.086;2023-04-25T05:18:53;96980.81;;;7.60;78.12
71938;BME280;59810;48.800;9.086;2023-04-25T05:21:19;96981.88;;;7.59;78.28
71938;BME280;59810;48.800;9.086;2023-04-25T05:23:44;96985.38;;;7.60;77.86
71938;BME280;59810;48.800;9.086;2023-04-25T05:26:09;96983.94;;;7.52;77.61
71938;BME280;59810;48.800;9.086;2023-04-25T05:28:41;96981.63;;;7.44;79.16
71938;BME280;59810;48.800;9.086;2023-04-25T05:31:08;96976.94;;;7.34;80.48
71938;BME280;59810;48.800;9.086;2023-04-25T05:33:35;96982.38;;;7.39;80.69
71938;BME280;59810;48.800;9.086;2023-04-25T05:36:00;96984.91;;;7.29;78.65
71938;BME280;59810;48.800;9.086;2023-04-25T05:38:26;96983.28;;;7.28;79.85
71938;BME280;59810;48.800;9.086;2023-04-25T05:40:51;96986.28;;;7.32;79.71
71938;BME280;59810;48.800;9.086;2023-04-25T05:43:16;96986.22;;;7.27;78.78
71938;BME280;59810;48.800;9.086;2023-04-25T05:45:44;96982.78;;;7.31;78.07
71938;BME280;59810;48.800;9.086;2023-04-25T05:48:09;96984.75;;;7.36;79.53
71938;BME280;59810;48.800;9.086;2023-04-25T05:50:34;96976.69;;;7.36;79.28
71938;BME280;59810;48.800;9.086;2023-04-25T05:53:00;96978.88;;;7.39;77.05
71938;BME280;59810;48.800;9.086;2023-04-25T05:55:25;96985.13;;;7.44;77.45
71938;BME280;59810;48.800;9.086;2023-04-25T05:57:50;96972.88;;;7.48;77.18
71938;BME280;59810;48.800;9.086;2023-04-25T06:00:16;96979.13;;;7.54;77.36
71938;BME280;59810;48.800;9.086;2023-04-25T06:02:41;96979.19;;;7.59;76.85
71938;BME280;59810;48.800;9.086;2023-04-25T06:05:08;96985.69;;;7.63;76.08
71938;BME280;59810;48.800;9.086;2023-04-25T06:07:36;96989.75;;;7.66;76.28
71938;BME280;59810;48.800;9.086;2023-04-25T06:10:04;96988.94;;;7.65;76.46
71938;BME280;59810;48.800;9.086;2023-04-25T06:12:32;96988.94;;;7.65;76.45
71938;BME280;59810;48.800;9.086;2023-04-25T06:15:02;96981.44;;;7.67;75.43
71938;BME280;59810;48.800;9.086;2023-04-25T06:17:28;96989.00;;;7.70;75.06
71938;BME280;59810;48.800;9.086;2023-04-25T06:19:54;96987.47;;;7.74;74.80
71938;BME280;59810;48.800;9.086;2023-04-25T06:22:19;96981.03;;;7.75;75.76
71938;BME280;59810;48.800;9.086;2023-04-25T06:24:45;96983.06;;;7.85;74.56
71938;BME280;59810;48.800;9.086;2023-04-25T06:27:11;96979.13;;;7.93;73.85
71938;BME280;59810;48.800;9.086;2023-04-25T06:29:38;96970.81;;;7.94;75.12
71938;BME280;59810;48.800;9.086;2023-04-25T06:32:04;96966.31;;;8.00;74.53
71938;BME280;59810;48.800;9.086;2023-04-25T06:34:30;96972.31;;;8.07;74.83
71938;BME280;59810;48.800;9.086;2023-04-25T06:36:55;96978.25;;;8.09;74.22
71938;BME280;59810;48.800;9.086;2023-04-25T06:39:20;96982.44;;;8.00;74.40
71938;BME280;59810;48.800;9.086;2023-04-25T06:41:48;96980.06;;;8.03;74.89
71938;BME280;59810;48.800;9.086;2023-04-25T06:44:13;96980.41;;;8.12;74.75
71938;BME280;59810;48.800;9.086;2023-04-25T06:46:39;96978.88;;;8.16;74.16
71938;BME280;59810;48.800;9.086;2023-04-25T06:49:05;96981.06;;;8.19;73.94
71938;BME280;59810;48.800;9.086;2023-04-25T06:51:30;96978.38;;;8.19;73.72
71938;BME280;59810;48.800;9.086;2023-04-25T06:53:56;96982.19;;;8.23;72.44
71938;BME280;59810;48.800;9.086;2023-04-25T06:56:21;96985.59;;;8.14;74.55
71938;BME280;59810;48.800;9.086;2023-04-25T06:58:47;96980.88;;;8.04;74.45
71938;BME280;59810;48.800;9.086;2023-04-25T07:01:14;96988.63;;;8.00;75.55
71938;BME280;59810;48.800;9.086;2023-04-25T07:03:40;96981.69;;;8.04;74.64
71938;BME280;59810;48.800;9.086;2023-04-25T07:06:05;96980.88;;;8.04;78.07
71938;BME280;59810;48.800;9.086;2023-04-25T07:08:31;96980.25;;;7.97;78.80
71938;BME280;59810;48.800;9.086;2023-04-25T07:10:56;96985.00;;;7.90;77.01
71938;BME280;59810;48.800;9.086;2023-04-25T07:13:22;96992.06;;;7.96;78.36
71938;BME280;59810;48.800;9.086;2023-04-25T07:15:47;96987.19;;;7.93;78.56
71938;BME280;59810;48.800;9.086;2023-04-25T07:18:16;96991.75;;;7.92;78.52
71938;BME280;59810;48.800;9.086;2023-04-25T07:20:41;96995.75;;;7.90;80.22
71938;BME280;59810;48.800;9.086;2023-04-25T07:23:08;96993.06;;;7.90;79.78
71938;BME280;59810;48.800;9.086;2023-04-25T07:25:34;96991.75;;;7.92;79.26
71938;BME280;59810;48.800;9.086;2023-04-25T07:28:00;97000.56;;;7.88;79.61
71938;BME280;59810;48.800;9.086;2023-04-25T07:30:25;96998.06;;;7.81;81.12
71938;BME280;59810;48.800;9.086;2023-04-25T07:32:51;97004.25;;;7.82;82.06
71938;BME280;59810;48.800;9.086;2023-04-25T07:35:17;97015.63;;;7.89;85.62
71938;BME280;59810;48.800;9.086;2023-04-25T07:37:42;97008.56;;;7.83;82.83
71938;BME280;59810;48.800;9.086;2023-04-25T07:40:08;97008.38;;;7.72;82.42
71938;BME280;59810;48.800;9.086;2023-04-25T07:42:35;97009.47;;;7.55;83.93
71938;BME280;59810;48.800;9.086;2023-04-25T07:45:02;97009.47;;;7.55;84.66
71938;BME280;59810;48.800;9.086;2023-04-25T07:47:28;97017.13;;;7.46;87.15
71938;BME280;59810;48.800;9.086;2023-04-25T07:49:53;97015.34;;;7.52;85.26
71938;BME280;59810;48.800;9.086;2023-04-25T07:52:19;97024.78;;;7.54;86.07
71938;BME280;59810;48.800;9.086;2023-04-25T07:54:44;97023.00;;;7.60;86.37
71938;BME280;59810;48.800;9.086;2023-04-25T07:57:10;97020.56;;;7.58;85.46
71938;BME280;59810;48.800;9.086;2023-04-25T07:59:35;97031.28;;;7.58;85.16
71938;BME280;59810;48.800;9.086;2023-04-25T08:02:01;97025.75;;;7.65;86.10
71938;BME280;59810;48.800;9.086;2023-04-25T08:04:32;97032.81;;;7.71;86.27
71938;BME280;59810;48.800;9.086;2023-04-25T08:06:57;97034.44;;;7.72;86.76
71938;BME280;59810;48.800;9.086;2023-04-25T08:09:22;97037.69;;;7.74;86.66
71938;BME280;59810;48.800;9.086;2023-04-25T08:11:48;97044.13;;;7.73;85.19
71938;BME280;59810;48.800;9.086;2023-04-25T08:14:14;97047.38;;;7.75;85.23
71938;BME280;59810;48.800;9.086;2023-04-25T08:16:39;97049.50;;;7.73;84.25
71938;BME280;59810;48.800;9.086;2023-04-25T08:19:05;97058.31;;;7.68;84.59
71938;BME280;59810;48.800;9.086;2023-04-25T08:21:31;97054.47;;;7.64;86.92
71938;BME280;59810;48.800;9.086;2023-04-25T08:23:57;97056.59;;;7.62;86.97
71938;BME280;59810;48.800;9.086;2023-04-25T08:26:24;97064.16;;;7.65;87.03
71938;BME280;59810;48.800;9.086;2023-04-25T08:28:49;97058.78;;;7.65;87.52
71938;BME280;59810;48.800;9.086;2023-04-25T08:31:14;97069.63;;;7.70;87.67
71938;BME280;59810;48.800;9.086;2023-04-25T08:33:40;97073.38;;;7.69;87.91
71938;BME280;59810;48.800;9.086;2023-04-25T08:36:07;97075.06;;;7.75;85.81
71938;BME280;59810;48.800;9.086;2023-04-25T08:38:33;97079.06;;;7.73;85.63
71938;BME280;59810;48.800;9.086;2023-04-25T08:40:59;97074.50;;;7.73;84.69
71938;BME280;59810;48.800;9.086;2023-04-25T08:43:26;97074.50;;;7.73;84.96
71938;BME280;59810;48.800;9.086;2023-04-25T08:45:55;97082.81;;;7.72;85.66
71938;BME280;59810;48.800;9.086;2023-04-25T08:48:24;97085.16;;;7.68;85.47
71938;BME280;59810;48.800;9.086;2023-04-25T08:50:54;97084.84;;;7.65;86.32
71938;BME280;59810;48.800;9.086;2023-04-25T08:53:24;97095.13;;;7.51;86.66
71938;BME280;59810;48.800;9.086;2023-04-25T08:55:53;97095.19;;;7.56;85.82
71938;BME280;59810;48.800;9.086;2023-04-25T08:58:21;97090.88;;;7.55;85.42
71938;BME280;59810;48.800;9.086;2023-04-25T09:00:48;97096.25;;;7.55;86.72
71938;BME280;59810;48.800;9.086;2023-04-25T09:03:14;97100.56;;;7.56;87.40
71938;BME280;59810;48.800;9.086;2023-04-25T09:05:40;97095.75;;;7.58;87.63
71938;BME280;59810;48.800;9.086;2023-04-25T09:08:06;97104.78;;;7.69;88.02
71938;BME280;59810;48.800;9.086;2023-04-25T09:10:37;97107.63;;;7.96;94.53
71938;BME280;59810;48.800;9.086;2023-04-25T09:15:32;97116.66;;;8.62;91.47
71938;BME280;59810;48.800;9.086;2023-04-25T09:18:01;97123.47;;;8.91;91.16
71938;BME280;59810;48.800;9.086;2023-04-25T09:20:26;97115.13;;;9.15;86.19
71938;BME280;59810;48.800;9.086;2023-04-25T09:23:05;97126.19;;;8.91;82.17
71938;BME280;59810;48.800;9.086;2023-04-25T09:25:38;97127.72;;;9.09;84.76
71938;BME280;59810;48.800;9.086;2023-04-25T09:28:08;97127.16;;;9.07;83.37
71938;BME280;59810;48.800;9.086;2023-04-25T09:30:35;97141.94;;;9.04;82.45
71938;BME280;59810;48.800;9.086;2023-04-25T09:33:10;97139.97;;;9.22;82.69
71938;BME280;59810;48.800;9.086;2023-04-25T09:35:41;97144.75;;;9.15;81.50
71938;BME280;59810;48.800;9.086;2023-04-25T09:38:18;97156.50;;;9.09;82.84
71938;BME280;59810;48.800;9.086;2023-04-25T09:40:44;97159.28;;;9.14;83.26
71938;BME280;59810;48.800;9.086;2023-04-25T09:43:24;97155.34;;;8.99;80.91
71938;BME280;59810;48.800;9.086;2023-04-25T09:45:51;97155.59;;;9.20;80.90
71938;BME280;59810;48.800;9.086;2023-04-25T09:48:17;97164.06;;;9.33;81.44
71938;BME280;59810;48.800;9.086;2023-04-25T09:51:06;97166.91;;;9.22;77.48
71938;BME280;59810;48.800;9.086;2023-04-25T09:53:43;97173.63;;;8.97;79.09
71938;BME280;59810;48.800;9.086;2023-04-25T09:56:11;97167.66;;;8.73;80.02
71938;BME280;59810;48.800;9.086;2023-04-25T09:58:38;97181.75;;;8.42;82.16
71938;BME280;59810;48.800;9.086;2023-04-25T10:01:08;97180.44;;;8.11;81.66
71938;BME280;59810;48.800;9.086;2023-04-25T10:03:41;97182.09;;;7.95;82.27
71938;BME280;59810;48.800;9.086;2023-04-25T10:06:09;97185.44;;;7.86;82.69
71938;BME280;59810;48.800;9.086;2023-04-25T10:08:38;97187.44;;;7.62;81.53
71938;BME280;59810;48.800;9.086;2023-04-25T10:11:05;97191.91;;;7.56;83.78
71938;BME280;59810;48.800;9.086;2023-04-25T10:13:31;97197.94;;;7.35;83.79
71938;BME280;59810;48.800;9.086;2023-04-25T10:16:01;97193.22;;;7.42;83.54
71938;BME280;59810;48.800;9.086;2023-04-25T10:18:28;97196.78;;;7.31;84.61
71938;BME280;59810;48.800;9.086;2023-04-25T10:20:55;97201.97;;;7.21;86.29
71938;BME280;59810;48.800;9.086;2023-04-25T10:23:21;97211.09;;;7.20;86.92
71938;BME280;59810;48.800;9.086;2023-04-25T10:25:52;97216.47;;;7.20;86.57
71938;BME280;59810;48.800;9.086;2023-04-25T10:28:19;97214.94;;;7.12;87.74
71938;BME280;59810;48.800;9.086;2023-04-25T10:31:04;97213.59;;;6.98;88.81
71938;BME280;59810;48.800;9.086;2023-04-25T10:33:37;97220.91;;;7.02;89.97
71938;BME280;59810;48.800;9.086;2023-04-25T10:36:10;97235.53;;;6.95;89.29
71938;BME280;59810;48.800;9.086;2023-04-25T10:38:36;97253.78;;;6.58;87.33
71938;BME280;59810;48.800;9.086;2023-04-25T10:41:07;97247.81;;;6.32;91.94
71938;BME280;59810;48.800;9.086;2023-04-25T10:45:59;97257.06;;;5.95;96.60
71938;BME280;59810;48.800;9.086;2023-04-25T10:48:30;97269.41;;;5.96;97.58
71938;BME280;59810;48.800;9.086;2023-04-25T10:51:11;97265.34;;;5.93;98.33
71938;BME280;59810;48.800;9.086;2023-04-25T10:53:37;97266.81;;;5.89;98.81
71938;BME280;59810;48.800;9.086;2023-04-25T10:56:17;97274.03;;;5.88;98.53
71938;BME280;59810;48.800;9.086;2023-04-25T10:58:46;97271.34;;;5.88;98.02
71938;BME280;59810;48.800;9.086;2023-04-25T11:01:15;97276.28;;;5.91;100.00
71938;BME280;59810;48.800;9.086;2023-04-25T11:03:44;97272.19;;;5.89;98.72
71938;BME280;59810;48.800;9.086;2023-04-25T11:06:20;97276.72;;;5.88;98.80
71938;BME280;59810;48.800;9.086;2023-04-25T11:08:51;97284.69;;;5.95;100.00
71938;BME280;59810;48.800;9.086;2023-04-25T11:11:17;97278.03;;;5.98;99.85
71938;BME280;59810;48.800;9.086;2023-04-25T11:13:44;97284.56;;;6.02;97.08
71938;BME280;59810;48.800;9.086;2023-04-25T11:16:10;97281.31;;;6.00;100.00
71938;BME280;59810;48.800;9.086;2023-04-25T11:18:35;97287.25;;;6.02;98.42
71938;BME280;59810;48.800;9.086;2023-04-25T11:21:02;97286.56;;;6.06;99.01
71938;BME280;59810;48.800;9.086;2023-04-25T11:23:29;97291.56;;;6.03;94.48
71938;BME280;59810;48.800;9.086;2023-04-25T11:25:55;97279.44;;;6.00;96.76
71938;BME280;59810;48.800;9.086;2023-04-25T11:28:21;97285.84;;;5.99;95.56
71938;BME280;59810;48.800;9.086;2023-04-25T11:30:48;97284.59;;;6.13;98.29
71938;BME280;59810;48.800;9.086;2023-04-25T11:33:15;97280.56;;;6.34;99.71
71938;BME280;59810;48.800;9.086;2023-04-25T11:35:40;97280.56;;;6.46;97.51
71938;BME280;59810;48.800;9.086;2023-04-25T11:38:06;97290.59;;;6.39;94.64
71938;BME280;59810;48.800;9.086;2023-04-25T11:40:31;97282.31;;;6.40;93.84
71938;BME280;59810;48.800;9.086;2023-04-25T11:42:59;97284.41;;;6.38;93.66
71938;BME280;59810;48.800;9.086;2023-04-25T11:45:25;97281.03;;;6.43;95.82
71938;BME280;59810;48.800;9.086;2023-04-25T11:47:51;97285.56;;;6.42;96.07
71938;BME280;59810;48.800;9.086;2023-04-25T11:50:17;97284.41;;;6.50;98.65
71938;BME280;59810;48.800;9.086;2023-04-25T11:52:47;97288.28;;;6.54;95.01
71938;BME280;59810;48.800;9.086;2023-04-25T11:55:16;97297.00;;;6.49;96.56
71938;BME280;59810;48.800;9.086;2023-04-25T11:57:43;97290.00;;;6.48;96.34
71938;BME280;59810;48.800;9.086;2023-04-25T12:00:15;97294.66;;;6.41;96.55
71938;BME280;59810;48.800;9.086;2023-04-25T12:02:46;97295.25;;;6.43;95.06
71938;BME280;59810;48.800;9.086;2023-04-25T12:05:13;97295.72;;;6.40;96.22
71938;BME280;59810;48.800;9.086;2023-04-25T12:07:40;97302.47;;;6.43;97.39
71938;BME280;59810;48.800;9.086;2023-04-25T12:10:10;97298.28;;;6.47;98.17
71938;BME280;59810;48.800;9.086;2023-04-25T12:12:36;97294.56;;;6.48;97.33
71938;BME280;59810;48.800;9.086;2023-04-25T12:15:27;97304.84;;;6.63;97.04
71938;BME280;59810;48.800;9.086;2023-04-25T12:17:53;97305.53;;;6.58;96.47
71938;BME280;59810;48.800;9.086;2023-04-25T12:20:21;97306.81;;;6.79;96.15
71938;BME280;59810;48.800;9.086;2023-04-25T12:22:53;97304.13;;;7.02;96.23
71938;BME280;59810;48.800;9.086;2023-04-25T12:25:39;97299.88;;;7.30;95.29
71938;BME280;59810;48.800;9.086;2023-04-25T12:28:16;97298.69;;;7.49;93.34
71938;BME280;59810;48.800;9.086;2023-04-25T12:31:03;97302.53;;;7.82;93.79
71938;BME280;59810;48.800;9.086;2023-04-25T12:33:36;97307.22;;;8.03;93.44
71938;BME280;59810;48.800;9.086;2023-04-25T12:36:04;97309.22;;;8.24;91.13
71938;BME280;59810;48.800;9.086;2023-04-25T12:38:37;97312.09;;;8.34;89.01
71938;BME280;59810;48.800;9.086;2023-04-25T12:41:03;97310.06;;;8.41;87.42
71938;BME280;59810;48.800;9.086;2023-04-25T12:43:33;97309.72;;;8.38;85.27
71938;BME280;59810;48.800;9.086;2023-04-25T12:46:01;97314.69;;;8.29;85.76
71938;BME280;59810;48.800;9.086;2023-04-25T12:48:29;97318.59;;;8.22;89.10
71938;BME280;59810;48.800;9.086;2023-04-25T12:50:54;97323.53;;;8.13;87.39
71938;BME280;59810;48.800;9.086;2023-04-25T12:53:21;97319.00;;;8.30;89.62
71938;BME280;59810;48.800;9.086;2023-04-25T12:55:47;97321.81;;;8.69;85.54
71938;BME280;59810;48.800;9.086;2023-04-25T12:58:14;97327.66;;;8.99;84.85
71938;BME280;59810;48.800;9.086;2023-04-25T13:00:39;97325.63;;;9.45;82.44
71938;BME280;59810;48.800;9.086;2023-04-25T13:03:05;97329.38;;;9.66;80.81
71938;BME280;59810;48.800;9.086;2023-04-25T13:05:33;97328.28;;;9.67;76.40
71938;BME280;59810;48.800;9.086;2023-04-25T13:07:59;97327.16;;;10.34;75.54
71938;BME280;59810;48.800;9.086;2023-04-25T13:10:24;97326.38;;;10.38;68.75
71938;BME280;59810;48.800;9.086;2023-04-25T13:12:50;97331.53;;;10.40;70.03
71938;BME280;59810;48.800;9.086;2023-04-25T13:15:15;97324.81;;;10.15;70.93